createdAt,value
2022-11-18T00:02:01.825Z,46.22
2022-11-18T00:05:04.048Z,43.88
2022-11-18T00:08:06.137Z,39.37
2022-11-18T00:11:12.013Z,45.38
2022-11-18T00:14:23.403Z,43.00
2022-11-18T00:17:25.690Z,40.80
2022-11-18T00:20:27.728Z,49.97
2022-11-18T00:23:30.126Z,48.85
2022-11-18T00:26:32.259Z,43.30
2022-11-18T00:29:34.363Z,42.13
2022-11-18T00:32:36.341Z,38.22
2022-11-18T00:35:38.377Z,50.47
2022-11-18T00:38:40.631Z,44.83
2022-11-18T00:42:01.009Z,49.42
2022-11-18T00:45:03.012Z,45.30
2022-11-18T00:48:05.296Z,44.60
2022-11-18T00:51:12.081Z,48.92
2022-11-18T00:54:14.139Z,42.28
2022-11-18T00:57:16.122Z,47.10
2022-11-18T01:00:18.175Z,43.67
2022-11-18T01:03:20.290Z,43.78
2022-11-18T01:06:22.362Z,45.33
2022-11-18T01:09:24.357Z,44.07
2022-11-18T01:12:46.317Z,45.47
2022-11-18T01:15:55.232Z,41.20
2022-11-18T01:18:57.860Z,44.70
2022-11-18T01:22:03.472Z,46.10
2022-11-18T01:25:05.682Z,46.28
2022-11-18T01:28:07.672Z,43.10
2022-11-18T01:31:11.188Z,42.33
2022-11-18T01:34:13.247Z,45.38
2022-11-18T01:37:15.349Z,42.00
2022-11-18T01:40:17.432Z,44.83
2022-11-18T01:43:20.129Z,44.45
2022-11-18T01:46:22.977Z,45.33
2022-11-18T01:49:25.046Z,51.42
2022-11-18T01:52:27.289Z,45.65
2022-11-18T01:55:31.634Z,55.17
2022-11-18T01:58:36.523Z,57.03
2022-11-18T02:01:38.893Z,54.33
2022-11-18T02:04:42.193Z,50.92
2022-11-18T02:07:44.387Z,56.05
2022-11-18T02:10:46.466Z,53.17
2022-11-18T02:13:48.444Z,49.85
2022-11-18T02:16:56.464Z,56.65
2022-11-18T02:19:58.418Z,54.95
2022-11-18T02:23:00.472Z,55.55
2022-11-18T02:26:28.026Z,57.10
2022-11-18T02:29:32.784Z,51.53
2022-11-18T02:32:43.654Z,53.90
2022-11-18T02:35:53.528Z,63.38
2022-11-18T02:38:59.508Z,57.65
2022-11-18T02:42:04.258Z,59.73
2022-11-18T02:45:07.945Z,60.63
2022-11-18T02:48:12.342Z,65.68
2022-11-18T02:51:16.138Z,75.00
2022-11-18T02:54:19.915Z,65.93
2022-11-18T02:57:23.736Z,62.63
2022-11-18T03:00:25.837Z,72.25
2022-11-18T03:03:32.644Z,63.07
2022-11-18T03:06:38.693Z,65.43
2022-11-18T03:09:42.576Z,61.17
2022-11-18T03:12:59.491Z,65.50
2022-11-18T03:16:04.874Z,66.70
2022-11-18T03:19:18.867Z,70.03
2022-11-18T03:22:20.981Z,72.32
2022-11-18T03:25:32.377Z,59.22
2022-11-18T03:28:37.312Z,60.13
2022-11-18T03:31:54.503Z,60.22
2022-11-18T03:35:07.153Z,66.20
2022-11-18T03:38:12.015Z,72.80
2022-11-18T03:41:15.221Z,72.00
2022-11-18T03:44:20.241Z,62.87
2022-11-18T03:47:54.621Z,62.65
2022-11-18T03:50:59.828Z,60.30
2022-11-18T03:54:13.697Z,59.95
2022-11-18T03:57:20.926Z,65.70
2022-11-18T04:00:23.106Z,82.35
2022-11-18T04:03:26.302Z,76.00
2022-11-18T04:06:33.054Z,73.97
2022-11-18T04:09:39.331Z,64.95
2022-11-18T04:12:54.300Z,67.35
2022-11-18T04:15:56.328Z,66.83
2022-11-18T04:19:01.507Z,69.13
2022-11-18T04:22:08.335Z,67.35
2022-11-18T04:25:10.530Z,77.50
2022-11-18T04:28:12.557Z,77.57
2022-11-18T04:31:14.562Z,64.03
2022-11-18T04:34:16.597Z,76.00
2022-11-18T04:37:18.598Z,65.73
2022-11-18T04:40:20.657Z,64.20
2022-11-18T04:43:22.745Z,61.25
2022-11-18T04:46:26.065Z,61.17
2022-11-18T04:49:28.454Z,56.38
2022-11-18T04:52:30.456Z,56.17
2022-11-18T04:55:35.278Z,55.38
2022-11-18T04:58:37.264Z,57.30
2022-11-18T05:01:39.294Z,65.18
2022-11-18T05:04:41.529Z,54.63
2022-11-18T05:07:43.566Z,59.00
2022-11-18T05:10:45.585Z,55.97
2022-11-18T05:13:50.029Z,54.25
2022-11-18T05:16:52.002Z,59.60
2022-11-18T05:19:54.077Z,58.47
2022-11-18T05:22:56.079Z,54.22
2022-11-18T05:26:02.306Z,57.10
2022-11-18T05:29:04.681Z,58.05
2022-11-18T05:32:06.674Z,60.90
2022-11-18T05:35:08.819Z,65.13
2022-11-18T05:38:10.829Z,70.35
2022-11-18T05:41:36.105Z,67.30
2022-11-18T05:44:38.135Z,65.32
2022-11-18T05:47:59.991Z,64.47
2022-11-18T05:51:02.010Z,69.93
2022-11-18T05:54:04.521Z,94.53
2022-11-18T05:57:06.555Z,79.85
2022-11-18T06:00:09.267Z,79.97
2022-11-18T06:03:17.978Z,88.57
2022-11-18T06:06:21.886Z,84.45
2022-11-18T06:09:25.249Z,84.28
2022-11-18T06:12:30.145Z,66.23
2022-11-18T06:15:34.552Z,61.97
2022-11-18T06:18:36.608Z,64.40
2022-11-18T06:21:38.630Z,58.40
2022-11-18T06:24:40.972Z,55.97
2022-11-18T06:27:43.370Z,60.13
2022-11-18T06:30:45.502Z,68.57
2022-11-18T06:33:47.730Z,63.40
2022-11-18T06:36:49.713Z,63.65
2022-11-18T06:39:51.813Z,69.65
2022-11-18T06:43:12.169Z,82.07
2022-11-18T06:46:34.040Z,62.03
2022-11-18T06:49:36.090Z,57.88
2022-11-18T06:52:38.160Z,59.07
2022-11-18T06:55:40.134Z,71.40
2022-11-18T06:58:42.278Z,64.53
2022-11-18T07:01:44.417Z,80.65
2022-11-18T07:04:46.701Z,82.55
2022-11-18T07:07:48.816Z,80.88
2022-11-18T07:10:54.073Z,64.70
2022-11-18T07:13:56.501Z,54.10
2022-11-18T07:16:58.586Z,66.45
2022-11-18T07:20:00.625Z,72.68
2022-11-18T07:23:02.765Z,92.40
2022-11-18T07:26:05.120Z,68.13
2022-11-18T07:29:07.315Z,66.93
2022-11-18T07:32:09.335Z,68.95
2022-11-18T07:35:11.492Z,58.42
2022-11-18T07:38:13.520Z,55.90
2022-11-18T07:41:16.886Z,62.60
2022-11-18T07:44:19.072Z,76.63
2022-11-18T07:47:21.204Z,66.10
2022-11-18T07:50:23.412Z,53.55
2022-11-18T07:53:25.581Z,76.00
2022-11-18T07:56:27.619Z,74.72
2022-11-18T07:59:30.146Z,69.93
2022-11-18T08:02:32.263Z,67.88
2022-11-18T08:05:34.323Z,56.22
2022-11-18T08:08:37.064Z,57.03
2022-11-18T08:11:40.939Z,51.80
2022-11-18T08:14:43.244Z,46.73
2022-11-18T08:17:45.426Z,54.38
2022-11-18T08:20:48.059Z,51.28
2022-11-18T08:23:54.348Z,55.00
2022-11-18T08:26:56.499Z,43.75
2022-11-18T08:29:58.582Z,40.20
2022-11-18T08:33:00.682Z,43.88
2022-11-18T08:36:07.247Z,36.38
2022-11-18T08:39:09.328Z,35.53
2022-11-18T08:42:11.641Z,40.70
2022-11-18T08:45:13.932Z,45.17
2022-11-18T08:48:16.490Z,53.08
2022-11-18T08:51:18.909Z,53.13
2022-11-18T08:54:21.085Z,62.40
2022-11-18T08:57:23.610Z,60.20
2022-11-18T09:00:25.917Z,55.78
2022-11-18T09:03:31.969Z,58.47
2022-11-18T09:06:34.965Z,59.23
2022-11-18T09:09:37.039Z,63.50
2022-11-18T09:12:39.063Z,59.95
2022-11-18T09:15:41.437Z,59.17
2022-11-18T09:18:43.596Z,58.92
2022-11-18T09:21:45.762Z,57.45
2022-11-18T09:24:47.931Z,56.67
2022-11-18T09:27:50.033Z,57.55
2022-11-18T09:30:52.150Z,57.97
2022-11-18T09:33:54.300Z,57.17
2022-11-18T09:36:57.042Z,54.60
2022-11-18T09:39:59.862Z,59.67
2022-11-18T09:43:07.881Z,54.58
2022-11-18T09:46:20.029Z,65.03
2022-11-18T09:49:26.693Z,62.00
2022-11-18T09:52:36.633Z,67.10
2022-11-18T09:55:39.633Z,62.30
2022-11-18T09:58:42.987Z,53.63
2022-11-18T10:01:45.520Z,48.83
2022-11-18T10:04:47.626Z,51.72
2022-11-18T10:08:07.984Z,58.57
2022-11-18T10:11:10.254Z,52.13
2022-11-18T10:14:15.538Z,54.28
2022-11-18T10:17:35.575Z,52.07
2022-11-18T10:20:40.504Z,60.42
2022-11-18T10:23:54.967Z,51.95
2022-11-18T10:26:58.632Z,58.67
2022-11-18T10:30:01.541Z,59.45
2022-11-18T10:33:05.786Z,56.05
2022-11-18T10:36:11.394Z,66.50
2022-11-18T10:39:14.772Z,57.53
2022-11-18T10:42:20.479Z,53.50
2022-11-18T10:45:22.673Z,57.03
2022-11-18T10:48:24.933Z,56.87
2022-11-18T10:51:27.118Z,66.63
2022-11-18T10:54:29.350Z,55.00
2022-11-18T10:57:32.377Z,59.63
2022-11-18T11:00:36.452Z,64.18
2022-11-18T11:03:39.056Z,63.17
2022-11-18T11:06:41.169Z,57.38
2022-11-18T11:09:43.710Z,58.80
2022-11-18T11:12:49.122Z,50.95
2022-11-18T11:15:53.632Z,55.58
2022-11-18T11:18:58.640Z,52.93
2022-11-18T11:22:00.766Z,53.53
2022-11-18T11:25:03.002Z,52.45
2022-11-18T11:31:16.006Z,70.40
2022-11-18T11:34:22.991Z,60.38
2022-11-18T11:37:43.760Z,58.95
2022-11-18T11:40:57.147Z,48.33
2022-11-18T11:44:06.220Z,51.92
2022-11-18T11:47:26.832Z,51.53
2022-11-18T11:50:31.685Z,46.20
2022-11-18T11:53:45.826Z,49.47
2022-11-18T11:56:51.170Z,49.38
2022-11-18T12:00:01.330Z,59.35
2022-11-18T12:03:15.616Z,73.00
2022-11-18T12:06:17.636Z,63.47
2022-11-18T12:09:26.543Z,58.65
2022-11-18T12:12:35.199Z,50.27
2022-11-18T12:15:43.919Z,46.00
2022-11-18T12:19:04.476Z,40.53
2022-11-18T12:22:07.121Z,38.20
2022-11-18T12:25:29.138Z,39.20
2022-11-18T12:28:33.102Z,41.92
2022-11-18T12:31:35.492Z,46.13
2022-11-18T12:34:39.634Z,54.35
2022-11-18T12:37:46.202Z,42.92
2022-11-18T12:40:52.759Z,45.63
2022-11-18T12:44:01.339Z,46.50
2022-11-18T12:47:04.290Z,43.35
2022-11-18T12:50:10.451Z,39.78
2022-11-18T12:53:27.270Z,43.60
2022-11-18T12:56:34.703Z,37.13
2022-11-18T12:59:37.609Z,42.33
2022-11-18T13:02:39.655Z,43.30
2022-11-18T13:05:42.487Z,43.75
2022-11-18T13:08:44.555Z,38.55
2022-11-18T13:11:49.504Z,38.80
2022-11-18T13:15:10.034Z,44.97
2022-11-18T13:18:14.062Z,30.70
2022-11-18T13:21:39.311Z,25.70
2022-11-18T13:24:48.836Z,22.07
2022-11-18T13:28:06.672Z,19.52
2022-11-18T13:31:20.886Z,17.85
2022-11-18T13:34:25.747Z,16.50
2022-11-18T13:37:29.348Z,18.45
2022-11-18T13:40:38.538Z,14.95
2022-11-18T13:43:40.675Z,18.08
2022-11-18T13:46:43.517Z,14.60
2022-11-18T13:49:51.586Z,24.48
2022-11-18T13:53:03.502Z,10.45
2022-11-18T13:56:05.634Z,10.57
2022-11-18T13:59:28.853Z,12.10
2022-11-18T14:02:31.072Z,8.50
2022-11-18T14:05:33.199Z,5.75
2022-11-18T14:08:36.481Z,8.43
2022-11-18T14:11:39.733Z,9.45
2022-11-18T14:14:42.558Z,8.05
2022-11-18T14:17:54.929Z,8.57
2022-11-18T14:20:57.358Z,9.43
2022-11-18T14:23:59.895Z,7.72
2022-11-18T14:27:21.858Z,11.73
2022-11-18T14:30:25.599Z,10.77
2022-11-18T14:33:29.010Z,8.43
2022-11-18T14:36:31.063Z,8.43
2022-11-18T14:39:33.758Z,9.60
2022-11-18T14:42:36.096Z,11.50
2022-11-18T14:45:38.529Z,8.73
2022-11-18T14:48:40.587Z,11.00
2022-11-18T14:51:42.666Z,11.40
2022-11-18T14:54:44.711Z,9.43
2022-11-18T14:57:46.718Z,12.13
2022-11-18T15:00:49.756Z,9.70
2022-11-18T15:03:52.015Z,11.10
2022-11-18T15:06:54.097Z,14.65
2022-11-18T15:09:56.314Z,12.27
2022-11-18T15:12:58.463Z,10.27
2022-11-18T15:16:02.051Z,10.00
2022-11-18T15:19:05.191Z,8.97
2022-11-18T15:22:07.790Z,13.43
2022-11-18T15:25:10.154Z,14.77
2022-11-18T15:28:12.820Z,12.07
2022-11-18T15:31:15.151Z,13.15
2022-11-18T15:34:18.432Z,10.07
2022-11-18T15:37:20.468Z,17.08
2022-11-18T15:40:22.479Z,12.50
2022-11-18T15:43:24.525Z,11.77
2022-11-18T15:46:27.213Z,12.43
2022-11-18T15:49:29.319Z,17.30
2022-11-18T15:52:31.415Z,14.25
2022-11-18T15:55:34.026Z,16.95
2022-11-18T15:58:36.299Z,18.53
2022-11-18T16:01:40.198Z,24.45
2022-11-18T16:04:42.211Z,22.05
2022-11-18T16:07:44.379Z,20.08
2022-11-18T16:11:05.048Z,22.45
2022-11-18T16:14:11.165Z,20.58
2022-11-18T16:17:13.182Z,22.92
2022-11-18T16:20:15.322Z,21.27
2022-11-18T16:23:17.480Z,27.17
2022-11-18T16:26:19.585Z,24.92
2022-11-18T16:29:23.568Z,26.40
2022-11-18T16:32:26.137Z,21.50
2022-11-18T16:35:28.244Z,20.75
2022-11-18T16:38:30.320Z,21.58
2022-11-18T16:41:32.378Z,25.10
2022-11-18T16:44:35.164Z,20.35
2022-11-18T16:47:38.620Z,24.95
2022-11-18T16:50:40.877Z,26.67
2022-11-18T16:53:43.172Z,23.98
2022-11-18T16:56:45.725Z,25.83
2022-11-18T16:59:47.750Z,25.00
2022-11-18T17:02:49.918Z,25.60
2022-11-18T17:05:51.957Z,22.83
2022-11-18T17:08:54.014Z,22.05
2022-11-18T17:11:56.422Z,26.83
2022-11-18T17:14:58.424Z,23.17
2022-11-18T17:18:00.472Z,26.40
2022-11-18T17:21:12.692Z,27.03
2022-11-18T17:24:15.809Z,26.23
2022-11-18T17:27:18.152Z,27.90
2022-11-18T17:30:20.181Z,26.90
2022-11-18T17:33:22.401Z,27.77
2022-11-18T17:36:25.837Z,27.77
2022-11-18T17:39:27.889Z,26.67
2022-11-18T17:42:29.888Z,32.78
2022-11-18T17:45:31.899Z,30.08
2022-11-18T17:48:34.053Z,31.08
2022-11-18T17:51:36.068Z,37.97
2022-11-18T17:54:38.199Z,32.25
2022-11-18T17:57:40.256Z,32.53
2022-11-18T18:00:42.391Z,29.33
2022-11-18T18:03:44.600Z,26.88
2022-11-18T18:06:51.336Z,36.63
2022-11-18T18:09:53.400Z,36.15
2022-11-18T18:13:13.809Z,32.33
2022-11-18T18:16:16.417Z,30.58
2022-11-18T18:19:19.839Z,33.13
2022-11-18T18:22:21.880Z,30.37
2022-11-18T18:25:23.891Z,31.33
2022-11-18T18:28:26.053Z,28.05
2022-11-18T18:31:28.590Z,26.50
2022-11-18T18:34:30.606Z,29.70
2022-11-18T18:37:34.646Z,27.45
2022-11-18T18:40:36.711Z,31.88
2022-11-18T18:43:38.869Z,27.30
2022-11-18T18:46:40.901Z,24.98
2022-11-18T18:49:43.188Z,29.00
2022-11-18T18:52:45.213Z,27.50
2022-11-18T18:55:47.212Z,37.00
2022-11-18T18:58:49.259Z,30.17
2022-11-18T19:01:51.264Z,27.43
2022-11-18T19:04:53.554Z,29.48
2022-11-18T19:07:55.591Z,30.40
2022-11-18T19:10:57.714Z,27.63
2022-11-18T19:14:00.510Z,25.92
2022-11-18T19:17:09.667Z,22.45
2022-11-18T19:20:32.038Z,28.42
2022-11-18T19:23:34.055Z,23.80
2022-11-18T19:26:36.158Z,24.30
2022-11-18T19:29:38.616Z,23.98
2022-11-18T19:32:41.526Z,27.00
2022-11-18T19:35:43.585Z,23.90
2022-11-18T19:38:45.969Z,22.85
2022-11-18T19:41:47.981Z,26.02
2022-11-18T19:44:50.041Z,22.05
2022-11-18T19:47:52.026Z,19.75
2022-11-18T19:51:04.541Z,20.02
2022-11-18T19:54:06.598Z,25.27
2022-11-18T19:57:08.598Z,23.23
2022-11-18T20:00:10.984Z,20.35
2022-11-18T20:03:15.514Z,24.67
2022-11-18T20:06:18.276Z,18.27
2022-11-18T20:09:20.644Z,19.45
2022-11-18T20:12:23.664Z,20.13
2022-11-18T20:15:25.721Z,15.38
2022-11-18T20:18:28.879Z,15.27
2022-11-18T20:21:31.265Z,14.90
2022-11-18T20:24:33.331Z,14.97
2022-11-18T20:27:35.434Z,13.85
2022-11-18T20:30:37.450Z,12.90
2022-11-18T20:33:40.647Z,13.63
2022-11-18T20:36:42.726Z,11.50
2022-11-18T20:39:44.722Z,10.65
2022-11-18T20:43:05.410Z,12.68
2022-11-18T20:46:08.289Z,10.80
2022-11-18T20:49:10.358Z,11.75
2022-11-18T20:52:12.365Z,13.10
2022-11-18T20:55:14.401Z,12.00
2022-11-18T20:58:16.633Z,11.68
2022-11-18T21:01:20.435Z,12.15
2022-11-18T21:04:22.696Z,14.63
2022-11-18T21:07:24.826Z,15.07
2022-11-18T21:10:26.881Z,15.65
2022-11-18T21:13:47.286Z,10.32
2022-11-18T21:16:49.314Z,12.32
2022-11-18T21:19:51.270Z,12.65
2022-11-18T21:22:53.301Z,11.77
2022-11-18T21:25:55.300Z,11.10
2022-11-18T21:28:58.329Z,11.82
2022-11-18T21:32:03.284Z,10.70
2022-11-18T21:35:05.520Z,11.97
2022-11-18T21:38:07.486Z,11.63
2022-11-18T21:41:09.725Z,12.73
2022-11-18T21:44:12.790Z,15.15
2022-11-18T21:47:14.765Z,17.92
2022-11-18T21:50:16.864Z,15.57
2022-11-18T21:53:20.063Z,13.85
2022-11-18T21:56:22.805Z,10.27
2022-11-18T21:59:24.851Z,14.73
2022-11-18T22:02:26.956Z,12.45
2022-11-18T22:05:29.472Z,12.70
2022-11-18T22:08:31.870Z,11.63
2022-11-18T22:11:33.921Z,12.80
2022-11-18T22:14:36.147Z,11.27
2022-11-18T22:17:38.199Z,10.45
2022-11-18T22:20:42.558Z,10.38
2022-11-18T22:23:44.934Z,9.00
2022-11-18T22:26:47.009Z,9.40
2022-11-18T22:29:49.040Z,8.15
2022-11-18T22:32:51.034Z,7.22
2022-11-18T22:35:53.023Z,9.73
2022-11-18T22:38:55.400Z,11.65
2022-11-18T22:42:15.787Z,10.63
2022-11-18T22:45:17.882Z,12.15
2022-11-18T22:48:19.905Z,10.07
2022-11-18T22:51:21.871Z,13.20
2022-11-18T22:54:40.213Z,11.20
2022-11-18T22:57:44.363Z,9.83
2022-11-18T23:00:47.369Z,9.45
2022-11-18T23:03:51.632Z,11.45
2022-11-18T23:06:53.808Z,11.63
2022-11-18T23:09:55.859Z,11.65
2022-11-18T23:13:16.562Z,13.00
2022-11-18T23:16:18.614Z,12.77
2022-11-18T23:19:20.816Z,10.55
2022-11-18T23:22:23.191Z,12.95
2022-11-18T23:25:25.156Z,15.70
2022-11-18T23:28:28.265Z,9.90
2022-11-18T23:31:30.213Z,9.73
2022-11-18T23:34:32.233Z,10.98
2022-11-18T23:37:34.321Z,11.40
2022-11-18T23:40:36.304Z,10.70
2022-11-18T23:43:38.708Z,12.43
2022-11-18T23:46:40.722Z,11.82
2022-11-18T23:49:42.789Z,12.45
2022-11-18T23:52:44.823Z,12.73
2022-11-18T23:55:46.829Z,12.85
2022-11-18T23:58:50.035Z,15.43
